Time;durP1;ratioP1;P1;durP2;ratioP2;P2;SDS_P1;SDS_P2;PMS_P1;PMS_P2;Temp;Humidity;BMP_temperature;BMP_pressure;BME280_temperature;BME280_humidity;BME280_pressure;Samples;Min_cycle;Max_cycle;Signal;HPM_P1;HPM_P2
2021/06/23 00:01:28;;;;;;;9.90;4.17;;;13.30;99.90;;;;;;4988766;28;20306;-70
2021/06/23 00:03:56;;;;;;;9.70;4.30;;;13.20;99.90;;;;;;4988315;28;20195;-70
2021/06/23 00:06:25;;;;;;;12.73;4.43;;;13.20;99.90;;;;;;4988721;28;20218;-70
2021/06/23 00:08:53;;;;;;;7.87;4.20;;;13.20;99.90;;;;;;4988686;28;20628;-69
2021/06/23 00:11:23;;;;;;;12.27;4.53;;;13.20;99.90;;;;;;4987551;28;20337;-69
2021/06/23 00:13:51;;;;;;;8.03;4.57;;;13.20;99.90;;;;;;4988965;28;20207;-69
2021/06/23 00:16:20;;;;;;;12.87;4.33;;;13.20;99.90;;;;;;4981169;28;20198;-70
2021/06/23 00:18:48;;;;;;;8.67;4.87;;;13.20;99.90;;;;;;4988121;28;20274;-70
2021/06/23 00:21:16;;;;;;;6.40;3.40;;;13.10;99.90;;;;;;4988366;28;20262;-69
2021/06/23 00:23:45;;;;;;;8.97;3.50;;;13.10;99.90;;;;;;4986703;28;20277;-70
2021/06/23 00:26:13;;;;;;;11.20;3.93;;;13.10;99.90;;;;;;4988935;28;20408;-69
2021/06/23 00:28:43;;;;;;;9.20;3.50;;;13.10;99.90;;;;;;4989679;28;20222;-70
2021/06/23 00:31:12;;;;;;;11.67;3.67;;;13.10;99.90;;;;;;4987933;28;20325;-70
2021/06/23 00:33:41;;;;;;;6.53;3.13;;;13.10;99.90;;;;;;4988670;28;20183;-70
2021/06/23 00:36:10;;;;;;;3.73;3.23;;;13.00;99.90;;;;;;4985681;28;20289;-69
2021/06/23 00:38:38;;;;;;;7.43;3.13;;;13.00;99.90;;;;;;4985942;28;20191;-70
2021/06/23 00:41:06;;;;;;;6.37;3.10;;;13.00;99.90;;;;;;4986952;28;20281;-69
2021/06/23 00:43:35;;;;;;;6.27;3.40;;;13.00;99.90;;;;;;4992557;28;20297;-70
2021/06/23 00:46:05;;;;;;;9.40;3.40;;;13.00;99.90;;;;;;4993092;28;20198;-69
2021/06/23 00:48:56;;;;;;;4.47;3.13;;;13.10;99.90;;;;;;4985501;28;20194;-69
2021/06/23 00:51:26;;;;;;;5.87;3.10;;;13.10;99.90;;;;;;4991334;28;20202;-69
2021/06/23 00:53:55;;;;;;;8.23;3.30;;;13.10;99.90;;;;;;4989096;28;20227;-69
2021/06/23 00:56:30;;;;;;;7.23;3.43;;;13.10;99.90;;;;;;4992745;28;20664;-69
2021/06/23 00:59:00;;;;;;;14.17;3.40;;;13.00;99.90;;;;;;4992669;28;20195;-69
2021/06/23 01:01:32;;;;;;;5.70;3.03;;;13.00;99.90;;;;;;4971789;28;20274;-69
2021/06/23 01:04:01;;;;;;;7.30;3.27;;;13.00;99.90;;;;;;4991686;28;20570;-69
2021/06/23 01:06:30;;;;;;;8.10;3.27;;;13.00;99.90;;;;;;4974831;28;20663;-69
2021/06/23 01:08:59;;;;;;;9.73;3.30;;;13.00;99.90;;;;;;4991861;28;20250;-69
2021/06/23 01:11:29;;;;;;;7.23;3.13;;;13.00;99.90;;;;;;4982699;28;20245;-69
2021/06/23 01:13:59;;;;;;;6.93;3.20;;;13.00;99.90;;;;;;4990770;28;20265;-69
2021/06/23 01:16:31;;;;;;;3.93;3.03;;;13.00;99.90;;;;;;4987705;28;20258;-69
2021/06/23 01:19:00;;;;;;;5.73;3.27;;;13.00;99.90;;;;;;4992268;28;20197;-69
2021/06/23 01:21:29;;;;;;;3.27;2.93;;;13.00;99.90;;;;;;4992734;28;20222;-69
2021/06/23 01:24:00;;;;;;;7.37;3.17;;;13.00;99.90;;;;;;4988365;28;20640;-69
2021/06/23 01:26:28;;;;;;;9.53;3.40;;;12.90;99.90;;;;;;4990653;28;20238;-70
2021/06/23 01:28:57;;;;;;;9.30;3.37;;;12.90;99.90;;;;;;4992519;28;20191;-69
2021/06/23 01:31:25;;;;;;;10.47;3.33;;;12.90;99.90;;;;;;4989546;28;20294;-69
2021/06/23 01:33:54;;;;;;;7.03;3.00;;;12.90;99.90;;;;;;4983440;28;20191;-69
2021/06/23 01:36:25;;;;;;;8.67;3.17;;;12.90;99.90;;;;;;4991379;28;20219;-69
2021/06/23 01:38:54;;;;;;;5.13;3.00;;;12.90;99.90;;;;;;4990190;28;20985;-69
2021/06/23 01:41:24;;;;;;;8.37;3.20;;;12.90;99.90;;;;;;4992054;28;20203;-69
2021/06/23 01:43:52;;;;;;;4.90;3.20;;;12.90;99.90;;;;;;4973203;28;20262;-69
2021/06/23 01:46:21;;;;;;;7.77;3.90;;;12.90;99.90;;;;;;4986889;28;20225;-69
2021/06/23 01:48:49;;;;;;;4.67;3.27;;;12.80;99.90;;;;;;4991862;28;20190;-69
2021/06/23 01:51:18;;;;;;;8.97;3.83;;;12.80;99.90;;;;;;4982947;28;20269;-69
2021/06/23 01:53:49;;;;;;;11.20;3.90;;;12.80;99.90;;;;;;4989025;28;20285;-69
2021/06/23 01:56:17;;;;;;;10.63;3.70;;;12.80;99.90;;;;;;4990335;28;20195;-69
2021/06/23 01:58:47;;;;;;;6.60;3.37;;;12.80;99.90;;;;;;4988465;28;20203;-69
2021/06/23 02:01:24;;;;;;;6.03;3.30;;;12.80;99.90;;;;;;4990796;28;20190;-69
2021/06/23 02:04:12;;;;;;;4.20;3.17;;;12.80;99.90;;;;;;4987038;28;20218;-69
2021/06/23 02:07:16;;;;;;;8.57;3.33;;;12.80;99.90;;;;;;4990848;28;20187;-69
2021/06/23 02:09:58;;;;;;;7.80;3.23;;;12.70;99.90;;;;;;4978958;28;20234;-69
2021/06/23 02:12:44;;;;;;;8.33;3.50;;;12.70;99.90;;;;;;4989488;28;20273;-69
2021/06/23 02:15:14;;;;;;;14.77;4.10;;;12.70;99.90;;;;;;4990750;28;20194;-69
2021/06/23 02:17:45;;;;;;;8.87;3.70;;;12.70;99.90;;;;;;4988934;28;20187;-69
2021/06/23 02:20:16;;;;;;;7.13;4.53;;;12.70;99.90;;;;;;4989071;28;20191;-69
2021/06/23 02:22:46;;;;;;;5.00;3.87;;;12.70;99.90;;;;;;4990838;28;20233;-69
2021/06/23 02:25:15;;;;;;;5.93;3.60;;;12.70;99.90;;;;;;4990895;28;20833;-69
2021/06/23 02:27:44;;;;;;;8.87;4.40;;;12.60;99.90;;;;;;4990296;28;20222;-69
2021/06/23 02:30:16;;;;;;;7.73;4.67;;;12.60;99.90;;;;;;4990822;28;20245;-69
2021/06/23 02:32:46;;;;;;;9.47;4.40;;;12.60;99.90;;;;;;4990107;28;20294;-69
2021/06/23 02:35:15;;;;;;;8.73;4.37;;;12.60;99.90;;;;;;4990879;28;20229;-69
2021/06/23 02:37:46;;;;;;;4.63;4.10;;;12.60;99.90;;;;;;4990704;28;20723;-69
2021/06/23 02:40:15;;;;;;;8.67;4.33;;;12.60;99.90;;;;;;4990797;28;20199;-70
2021/06/23 02:42:44;;;;;;;7.33;4.37;;;12.60;99.90;;;;;;4990365;28;20278;-70
2021/06/23 02:45:15;;;;;;;4.73;4.03;;;12.60;99.90;;;;;;4990897;28;20640;-70
2021/06/23 02:47:44;;;;;;;6.53;4.10;;;12.60;99.90;;;;;;4990680;28;20199;-70
2021/06/23 02:50:13;;;;;;;7.90;4.57;;;12.60;99.90;;;;;;4984606;28;20219;-70
2021/06/23 02:52:42;;;;;;;11.07;5.20;;;12.60;99.90;;;;;;4989928;28;20321;-70
2021/06/23 02:55:19;;;;;;;6.30;4.40;;;12.60;99.90;;;;;;4990248;28;20199;-70
2021/06/23 02:57:49;;;;;;;8.63;4.30;;;12.60;99.90;;;;;;4990289;28;20245;-70
2021/06/23 03:00:22;;;;;;;6.23;5.03;;;12.60;99.90;;;;;;4989726;28;20627;-69
2021/06/23 03:02:51;;;;;;;6.13;5.00;;;12.60;99.90;;;;;;4990296;28;20207;-70
2021/06/23 03:05:22;;;;;;;13.47;5.50;;;12.60;99.90;;;;;;4988936;28;20197;-70
2021/06/23 03:07:51;;;;;;;9.03;5.13;;;12.60;99.90;;;;;;4987079;28;20293;-70
2021/06/23 03:10:19;;;;;;;7.17;5.67;;;12.50;99.90;;;;;;4990744;28;20646;-70
2021/06/23 03:12:48;;;;;;;9.33;6.17;;;12.50;99.90;;;;;;4985151;28;20198;-70
2021/06/23 03:15:17;;;;;;;10.30;6.27;;;12.50;99.90;;;;;;4989874;28;20229;-70
2021/06/23 03:17:50;;;;;;;7.93;5.73;;;12.50;99.90;;;;;;4989735;28;20910;-70
2021/06/23 03:20:18;;;;;;;10.03;6.63;;;12.50;99.90;;;;;;4991288;28;20638;-69
2021/06/23 03:22:47;;;;;;;12.70;7.00;;;12.50;99.90;;;;;;4990794;28;20199;-70
2021/06/23 03:25:15;;;;;;;11.43;7.43;;;12.50;99.90;;;;;;4989956;28;20653;-70
2021/06/23 03:27:53;;;;;;;12.37;6.87;;;12.50;99.90;;;;;;4989816;28;20226;-70
2021/06/23 03:30:23;;;;;;;12.40;6.97;;;12.50;99.90;;;;;;4986593;28;20202;-70
2021/06/23 03:32:53;;;;;;;11.90;6.73;;;12.50;99.90;;;;;;4989299;28;20191;-70
2021/06/23 03:35:23;;;;;;;11.53;7.57;;;12.50;99.90;;;;;;4989977;28;20202;-70
2021/06/23 03:37:53;;;;;;;14.37;7.63;;;12.50;99.90;;;;;;4989508;28;20225;-70
2021/06/23 03:40:23;;;;;;;14.43;8.00;;;12.50;99.90;;;;;;4990273;28;20246;-70
2021/06/23 03:42:54;;;;;;;10.43;8.20;;;12.50;99.90;;;;;;4989197;28;20230;-70
2021/06/23 03:45:43;;;;;;;15.53;8.07;;;12.50;99.90;;;;;;4989994;28;20222;-70
2021/06/23 03:48:13;;;;;;;15.93;8.83;;;12.50;99.90;;;;;;4989174;28;20588;-70
2021/06/23 03:50:44;;;;;;;19.90;9.63;;;12.50;99.90;;;;;;4989859;28;20285;-70
2021/06/23 03:53:13;;;;;;;16.83;9.10;;;12.50;99.90;;;;;;4986663;28;20238;-69
2021/06/23 03:55:42;;;;;;;10.17;8.57;;;12.50;99.90;;;;;;4990116;28;20282;-70
2021/06/23 03:58:11;;;;;;;14.77;9.23;;;12.40;99.90;;;;;;4988945;28;20199;-69
2021/06/23 04:00:39;;;;;;;12.83;9.03;;;12.50;99.90;;;;;;4988962;28;20250;-70
2021/06/23 04:03:07;;;;;;;14.07;8.80;;;12.50;99.90;;;;;;4988909;28;20673;-69
2021/06/23 04:05:37;;;;;;;16.87;9.23;;;12.50;99.90;;;;;;4989436;28;20253;-70
2021/06/23 04:08:09;;;;;;;16.47;9.13;;;12.50;99.90;;;;;;4989333;28;20675;-70
2021/06/23 04:10:38;;;;;;;19.03;9.63;;;12.50;99.90;;;;;;4989420;28;20242;-70
2021/06/23 04:13:19;;;;;;;20.33;10.00;;;12.50;99.90;;;;;;4986547;28;20360;-70
2021/06/23 04:15:48;;;;;;;16.90;10.47;;;12.50;99.90;;;;;;4989705;28;20194;-70
2021/06/23 04:18:16;;;;;;;20.17;11.13;;;12.50;99.90;;;;;;4991005;28;20651;-70
2021/06/23 04:20:48;;;;;;;14.80;10.57;;;12.50;99.90;;;;;;4989368;28;20218;-70
2021/06/23 04:23:17;;;;;;;15.70;10.33;;;12.50;99.90;;;;;;4993412;28;20234;-69
2021/06/23 04:25:46;;;;;;;16.63;10.70;;;12.50;99.90;;;;;;4993443;28;20214;-69
2021/06/23 04:28:14;;;;;;;19.37;10.70;;;12.50;99.90;;;;;;4991153;28;20532;-69
2021/06/23 04:30:43;;;;;;;18.27;11.47;;;12.50;99.90;;;;;;4992449;28;20278;-70
2021/06/23 04:33:11;;;;;;;22.53;11.00;;;12.50;99.90;;;;;;4991932;28;20277;-69
2021/06/23 04:35:40;;;;;;;19.47;10.90;;;12.50;99.90;;;;;;4992602;28;20183;-70
2021/06/23 04:38:10;;;;;;;19.40;11.20;;;12.50;99.90;;;;;;4991265;28;20210;-70
2021/06/23 04:40:40;;;;;;;24.80;12.20;;;12.50;99.90;;;;;;4992996;28;20203;-70
2021/06/23 04:43:08;;;;;;;16.63;11.70;;;12.50;99.90;;;;;;4992306;28;20286;-69
2021/06/23 04:45:36;;;;;;;19.90;12.20;;;12.50;99.90;;;;;;4985899;28;20305;-69
2021/06/23 04:48:05;;;;;;;17.17;12.17;;;12.50;99.90;;;;;;4982913;28;20286;-69
2021/06/23 04:50:34;;;;;;;18.17;11.90;;;12.50;99.90;;;;;;4990784;28;20199;-69
2021/06/23 04:53:03;;;;;;;17.80;12.10;;;12.50;99.90;;;;;;4992206;28;20264;-69
2021/06/23 04:55:33;;;;;;;22.97;12.33;;;12.50;99.90;;;;;;4991682;28;20218;-69
2021/06/23 04:58:02;;;;;;;17.57;11.97;;;12.60;99.90;;;;;;4989068;28;20207;-68
2021/06/23 05:00:30;;;;;;;18.23;11.37;;;12.60;99.90;;;;;;4985724;28;20640;-70
2021/06/23 05:02:59;;;;;;;19.77;11.70;;;12.60;99.90;;;;;;4988630;28;20610;-69
2021/06/23 05:05:27;;;;;;;19.63;12.37;;;12.70;99.90;;;;;;4988566;28;20238;-69
2021/06/23 05:07:58;;;;;;;15.33;12.10;;;12.60;99.90;;;;;;4989676;28;20282;-70
2021/06/23 05:10:29;;;;;;;21.37;12.93;;;12.70;99.90;;;;;;4986630;28;20249;-70
2021/06/23 05:12:59;;;;;;;17.90;13.90;;;12.60;99.90;;;;;;4985338;28;20596;-70
2021/06/23 05:15:27;;;;;;;21.53;13.10;;;12.70;99.90;;;;;;4989450;28;20614;-69
2021/06/23 05:17:57;;;;;;;21.00;12.97;;;12.70;99.90;;;;;;4987957;28;20559;-70
2021/06/23 05:20:25;;;;;;;14.97;11.60;;;12.80;99.90;;;;;;4990069;28;20218;-69
2021/06/23 05:22:55;;;;;;;19.17;12.07;;;12.80;99.90;;;;;;4990437;28;20278;-69
2021/06/23 05:25:23;;;;;;;15.97;12.00;;;12.80;99.90;;;;;;4979532;28;20215;-69
2021/06/23 05:27:52;;;;;;;18.87;12.03;;;12.80;99.90;;;;;;4991074;28;20202;-69
2021/06/23 05:30:22;;;;;;;17.60;11.50;;;12.90;99.90;;;;;;4990889;28;20286;-69
2021/06/23 05:32:51;;;;;;;17.23;11.40;;;12.90;99.90;;;;;;4988690;28;20205;-69
2021/06/23 05:35:20;;;;;;;18.40;11.87;;;12.90;99.90;;;;;;4990383;28;20190;-69
2021/06/23 05:37:49;;;;;;;19.13;10.90;;;12.90;99.90;;;;;;4982036;28;20281;-69
2021/06/23 05:40:17;;;;;;;16.93;12.17;;;12.90;99.90;;;;;;4990667;28;20191;-69
2021/06/23 05:42:46;;;;;;;18.73;11.67;;;12.90;99.90;;;;;;4992070;28;20289;-69
2021/06/23 05:45:15;;;;;;;15.37;11.93;;;12.90;99.90;;;;;;4991836;28;20203;-69
2021/06/23 05:47:45;;;;;;;20.40;11.90;;;12.90;99.90;;;;;;4990645;28;20604;-69
2021/06/23 05:50:14;;;;;;;17.97;11.43;;;12.90;99.90;;;;;;4992171;28;20640;-70
2021/06/23 05:52:42;;;;;;;17.27;12.13;;;12.90;99.90;;;;;;4990764;28;20226;-69
2021/06/23 05:55:12;;;;;;;19.73;12.50;;;12.90;99.90;;;;;;4985595;28;20679;-69
2021/06/23 05:57:40;;;;;;;15.63;11.33;;;12.90;99.90;;;;;;4990082;28;21751;-69
2021/06/23 06:00:10;;;;;;;16.13;12.37;;;13.00;99.90;;;;;;4981477;28;20199;-69
2021/06/23 06:02:41;;;;;;;24.10;12.07;;;13.00;99.90;;;;;;4988577;28;20317;-69
2021/06/23 06:05:12;;;;;;;17.30;12.80;;;13.10;99.90;;;;;;4985836;28;20306;-68
2021/06/23 06:07:40;;;;;;;17.93;13.17;;;13.10;99.90;;;;;;4991899;28;20619;-69
2021/06/23 06:10:10;;;;;;;24.50;14.37;;;13.10;99.90;;;;;;4991548;28;20615;-68
2021/06/23 06:12:39;;;;;;;21.33;13.93;;;13.10;99.90;;;;;;4991543;28;20195;-69
2021/06/23 06:15:08;;;;;;;25.63;13.80;;;13.20;99.90;;;;;;4990987;28;20185;-69
2021/06/23 06:17:36;;;;;;;19.03;13.50;;;13.20;99.90;;;;;;4991410;28;20190;-69
2021/06/23 06:20:07;;;;;;;19.03;13.23;;;13.20;99.90;;;;;;4989825;28;20187;-69
2021/06/23 06:22:37;;;;;;;23.63;12.97;;;13.20;99.90;;;;;;4991791;28;20191;-69
2021/06/23 06:25:06;;;;;;;19.83;14.13;;;13.20;99.90;;;;;;4991302;28;20305;-68
2021/06/23 06:27:35;;;;;;;21.43;14.17;;;13.30;99.90;;;;;;4981472;28;20278;-68
2021/06/23 06:30:04;;;;;;;20.47;14.17;;;13.30;99.90;;;;;;4991054;28;20195;-69
2021/06/23 06:32:32;;;;;;;21.17;13.20;;;13.40;99.90;;;;;;4983342;28;20568;-69
2021/06/23 06:35:01;;;;;;;20.10;13.47;;;13.50;99.90;;;;;;4986545;28;20198;-69
2021/06/23 06:37:29;;;;;;;17.40;13.07;;;13.60;99.90;;;;;;4991575;28;20194;-68
2021/06/23 06:39:59;;;;;;;19.80;12.77;;;13.70;99.90;;;;;;4989925;28;20261;-69
2021/06/23 06:42:28;;;;;;;19.90;13.43;;;13.90;99.90;;;;;;4990844;28;20194;-69
2021/06/23 06:44:56;;;;;;;21.33;12.70;;;13.90;99.90;;;;;;4990104;28;20725;-69
2021/06/23 06:47:25;;;;;;;22.60;12.87;;;14.00;99.90;;;;;;4989411;28;20221;-69
2021/06/23 06:49:53;;;;;;;19.43;13.30;;;14.20;99.90;;;;;;4984222;28;20225;-69
2021/06/23 06:52:21;;;;;;;16.73;12.23;;;14.30;99.90;;;;;;4989650;28;20293;-69
2021/06/23 06:54:50;;;;;;;16.10;12.77;;;14.40;99.90;;;;;;4990422;28;20226;-69
2021/06/23 06:57:20;;;;;;;21.97;13.63;;;14.60;99.90;;;;;;4991351;28;20187;-68
2021/06/23 06:59:48;;;;;;;22.90;13.60;;;14.60;99.90;;;;;;4983406;28;20612;-69
2021/06/23 07:02:17;;;;;;;23.33;12.70;;;14.80;99.90;;;;;;4988228;28;20202;-68
2021/06/23 07:04:45;;;;;;;18.13;12.43;;;14.90;99.90;;;;;;4990443;28;20195;-69
2021/06/23 07:07:14;;;;;;;24.70;13.27;;;15.00;99.90;;;;;;4990524;28;20302;-69
2021/06/23 07:09:42;;;;;;;22.77;12.00;;;15.10;99.90;;;;;;4989358;28;20203;-69
2021/06/23 07:12:12;;;;;;;15.57;11.73;;;15.20;99.90;;;;;;4990723;28;20610;-69
2021/06/23 07:14:41;;;;;;;17.17;11.40;;;15.20;99.90;;;;;;4990091;28;20225;-69
2021/06/23 07:17:10;;;;;;;15.63;11.70;;;15.30;99.90;;;;;;4990231;28;20297;-68
2021/06/23 07:19:41;;;;;;;16.70;11.23;;;15.30;99.90;;;;;;4989804;28;20205;-69
2021/06/23 07:22:09;;;;;;;22.30;11.47;;;15.40;99.90;;;;;;4990085;28;20191;-68
2021/06/23 07:24:37;;;;;;;15.63;11.17;;;15.60;99.90;;;;;;4980626;28;20199;-69
2021/06/23 07:27:07;;;;;;;17.53;10.93;;;15.70;99.90;;;;;;4990483;28;20243;-69
2021/06/23 07:29:35;;;;;;;14.80;10.27;;;16.00;99.90;;;;;;4990052;28;20194;-69
2021/06/23 07:32:08;;;;;;;15.70;9.80;;;16.10;99.90;;;;;;4990701;28;20285;-68
2021/06/23 07:37:26;;;;;;;18.37;9.93;;;16.20;99.90;;;;;;4981596;28;20215;-68
2021/06/23 07:39:54;;;;;;;14.27;10.07;;;16.30;99.90;;;;;;4989988;28;20220;-68
2021/06/23 07:42:22;;;;;;;15.03;9.23;;;16.30;99.90;;;;;;4988928;28;20233;-68
2021/06/23 07:44:56;;;;;;;12.10;9.47;;;16.50;99.90;;;;;;4989299;28;20722;-68
2021/06/23 07:47:28;;;;;;;12.30;8.73;;;16.80;99.90;;;;;;4990246;28;20238;-68
2021/06/23 07:49:58;;;;;;;14.57;9.23;;;17.00;99.90;;;;;;4989855;28;20293;-67
2021/06/23 07:52:34;;;;;;;12.30;8.63;;;16.90;99.90;;;;;;4989379;28;20301;-68
2021/06/23 07:55:11;;;;;;;14.00;9.27;;;16.60;99.90;;;;;;4991964;28;20190;-68
2021/06/23 08:11:32;;;;;;;13.00;8.73;;;16.20;99.90;;;;;;5002470;28;20608;-68
2021/06/23 08:14:01;;;;;;;15.20;8.87;;;16.20;99.90;;;;;;4985568;28;20727;-68
2021/06/23 08:16:30;;;;;;;15.33;9.00;;;16.20;99.90;;;;;;4989148;28;20211;-68
2021/06/23 08:19:00;;;;;;;13.00;9.27;;;16.10;99.90;;;;;;4990141;28;20200;-68
2021/06/23 08:21:28;;;;;;;12.60;8.90;;;16.10;99.90;;;;;;4987758;28;20232;-68
2021/06/23 08:23:56;;;;;;;17.80;9.47;;;16.10;99.90;;;;;;4988651;28;20226;-67
2021/06/23 08:26:29;;;;;;;16.83;8.67;;;16.10;99.90;;;;;;4988727;28;20224;-67
2021/06/23 08:28:58;;;;;;;15.97;9.90;;;16.10;99.90;;;;;;4990300;28;20258;-68
2021/06/23 08:31:26;;;;;;;12.70;9.57;;;16.10;99.90;;;;;;4988209;28;20524;-68
2021/06/23 08:34:00;;;;;;;14.23;9.17;;;16.20;99.90;;;;;;4989897;28;20197;-68
2021/06/23 08:36:29;;;;;;;11.63;8.47;;;16.30;99.90;;;;;;4988016;28;20198;-68
2021/06/23 08:38:57;;;;;;;16.73;9.23;;;16.30;99.90;;;;;;4988180;28;20251;-67
2021/06/23 08:41:28;;;;;;;13.63;8.60;;;16.30;99.90;;;;;;4988910;28;20189;-68
2021/06/23 08:43:58;;;;;;;9.53;7.57;;;16.30;99.90;;;;;;4988451;28;20208;-67
2021/06/23 08:46:26;;;;;;;11.73;8.60;;;16.30;99.90;;;;;;4981694;28;20206;-68
2021/06/23 08:48:56;;;;;;;9.40;7.60;;;16.40;99.90;;;;;;4989239;28;20267;-68
2021/06/23 08:51:26;;;;;;;11.60;7.73;;;16.40;99.90;;;;;;4979193;28;20777;-67
2021/06/23 08:53:54;;;;;;;11.77;7.97;;;16.40;99.90;;;;;;4989872;28;20783;-67
2021/06/23 08:56:23;;;;;;;12.27;7.23;;;16.40;99.90;;;;;;4988626;28;20187;-67
2021/06/23 08:58:51;;;;;;;11.43;7.70;;;16.30;99.90;;;;;;4987420;28;20679;-67
2021/06/23 09:01:20;;;;;;;13.80;7.83;;;16.30;99.90;;;;;;4987729;28;20199;-67
2021/06/23 09:04:06;;;;;;;11.20;7.50;;;16.20;99.90;;;;;;4991947;28;20239;-67
2021/06/23 09:06:43;;;;;;;9.30;7.70;;;16.10;99.90;;;;;;4991041;28;20242;-67
2021/06/23 09:09:17;;;;;;;13.27;8.60;;;16.10;99.90;;;;;;4993727;28;20204;-68
2021/06/23 09:11:46;;;;;;;11.40;7.47;;;16.10;99.90;;;;;;4992948;28;20283;-68
2021/06/23 09:14:16;;;;;;;14.30;8.30;;;16.10;99.90;;;;;;4990986;28;20200;-67
2021/06/23 09:17:05;;;;;;;15.17;8.67;;;16.10;99.90;;;;;;4982183;28;20197;-68
2021/06/23 09:19:54;;;;;;;19.03;9.37;;;16.20;99.90;;;;;;4988522;28;20187;-68
2021/06/23 09:22:40;;;;;;;11.37;8.83;;;16.10;99.90;;;;;;4991958;28;20200;-67
2021/06/23 09:25:31;;;;;;;11.93;8.60;;;16.00;99.90;;;;;;4992516;28;20200;-68
2021/06/23 09:28:02;;;;;;;12.17;8.63;;;16.10;99.90;;;;;;4983375;28;20216;-67
2021/06/23 09:30:34;;;;;;;11.40;8.20;;;16.10;99.90;;;;;;4989834;28;20294;-67
2021/06/23 09:33:11;;;;;;;10.80;8.13;;;16.10;99.90;;;;;;4986092;28;20277;-68
2021/06/23 09:35:41;;;;;;;13.60;8.17;;;16.20;99.90;;;;;;4980761;28;20191;-67
2021/06/23 09:38:36;;;;;;;10.60;7.73;;;16.20;99.90;;;;;;4992366;28;20183;-68
2021/06/23 09:41:07;;;;;;;11.10;8.40;;;16.20;99.90;;;;;;4990090;28;20221;-68
2021/06/23 09:43:40;;;;;;;12.87;7.83;;;16.20;99.90;;;;;;4991955;28;20312;-67
2021/06/23 09:46:20;;;;;;;11.10;7.63;;;16.20;99.90;;;;;;4992068;28;20618;-68
2021/06/23 09:48:50;;;;;;;11.87;7.20;;;16.30;99.90;;;;;;4989284;28;20331;-67
2021/06/23 09:51:24;;;;;;;10.37;7.57;;;16.30;99.90;;;;;;4988343;28;20223;-67
2021/06/23 09:54:01;;;;;;;13.73;7.70;;;16.30;99.90;;;;;;4992070;28;20354;-67
2021/06/23 09:56:50;;;;;;;14.53;8.47;;;16.40;99.90;;;;;;4990662;28;20596;-68
2021/06/23 09:59:32;;;;;;;12.40;8.40;;;16.30;99.90;;;;;;4992076;28;20235;-68
2021/06/23 10:02:00;;;;;;;14.57;8.80;;;16.30;99.90;;;;;;4992047;28;20286;-67
2021/06/23 10:04:33;;;;;;;14.63;8.17;;;16.30;99.90;;;;;;4988938;28;20216;-67
2021/06/23 10:07:03;;;;;;;9.70;7.43;;;16.30;99.90;;;;;;4985633;28;20744;-68
2021/06/23 10:09:34;;;;;;;13.67;7.53;;;16.20;99.90;;;;;;4989461;28;20231;-68
2021/06/23 10:12:06;;;;;;;10.13;6.93;;;16.20;99.90;;;;;;4991799;28;20231;-68
2021/06/23 10:14:41;;;;;;;7.97;7.17;;;16.20;99.90;;;;;;4991586;28;20249;-68
2021/06/23 10:17:10;;;;;;;9.70;7.57;;;16.30;99.90;;;;;;4991554;28;20188;-68
2021/06/23 10:19:41;;;;;;;12.27;7.70;;;16.30;99.90;;;;;;4991389;28;20218;-68
2021/06/23 10:22:12;;;;;;;11.00;7.70;;;16.30;99.90;;;;;;4989904;28;20215;-67
2021/06/23 10:24:57;;;;;;;13.43;7.20;;;16.30;99.90;;;;;;4987613;28;20199;-67
2021/06/23 10:27:25;;;;;;;13.47;7.10;;;16.30;99.90;;;;;;4984131;28;21143;-68
2021/06/23 10:29:57;;;;;;;12.00;7.27;;;16.50;99.90;;;;;;4985519;28;20216;-68
2021/06/23 10:32:26;;;;;;;12.73;7.53;;;16.50;99.90;;;;;;4989958;28;20845;-67
2021/06/23 10:34:55;;;;;;;9.50;7.13;;;16.60;99.90;;;;;;4989751;28;20293;-68
2021/06/23 10:37:28;;;;;;;9.60;7.23;;;16.70;99.90;;;;;;4985391;28;20194;-68
2021/06/23 10:39:58;;;;;;;11.10;7.33;;;16.70;99.90;;;;;;4986912;28;20847;-67
2021/06/23 10:42:26;;;;;;;10.40;7.50;;;16.90;99.90;;;;;;4988828;28;20204;-67
2021/06/23 10:44:57;;;;;;;12.13;7.00;;;17.00;99.90;;;;;;4991171;28;20230;-68
2021/06/23 10:47:36;;;;;;;9.97;7.47;;;17.00;99.90;;;;;;4990474;28;20301;-68
2021/06/23 10:50:06;;;;;;;13.23;7.60;;;17.00;99.90;;;;;;4988522;28;20193;-67
2021/06/23 10:52:41;;;;;;;13.40;7.30;;;17.00;99.90;;;;;;4985431;28;20195;-68
2021/06/23 10:55:40;;;;;;;11.67;7.40;;;17.10;99.90;;;;;;4985812;28;20253;-68
2021/06/23 10:58:12;;;;;;;10.07;7.33;;;17.20;99.90;;;;;;4986748;28;20199;-68
2021/06/23 11:00:44;;;;;;;7.53;6.70;;;17.40;99.90;;;;;;4987327;28;20197;-68
2021/06/23 11:03:15;;;;;;;12.17;8.00;;;17.40;99.90;;;;;;4986799;28;20190;-67
2021/06/23 11:05:46;;;;;;;12.03;7.57;;;17.40;99.90;;;;;;4988751;28;20681;-68
2021/06/23 11:08:32;;;;;;;15.60;7.63;;;17.50;99.90;;;;;;4985860;28;20211;-68
2021/06/23 11:11:02;;;;;;;9.37;7.20;;;17.40;99.90;;;;;;4982165;28;20274;-68
2021/06/23 11:13:34;;;;;;;11.03;7.87;;;17.30;99.90;;;;;;4984902;28;20197;-68
2021/06/23 11:16:06;;;;;;;12.80;8.17;;;17.30;99.90;;;;;;4988033;28;20202;-68
2021/06/23 11:18:37;;;;;;;13.40;7.80;;;17.20;99.90;;;;;;4980181;28;20296;-67
2021/06/23 11:21:17;;;;;;;14.97;9.03;;;17.10;99.90;;;;;;4984231;28;20686;-68
2021/06/23 11:23:55;;;;;;;15.90;8.60;;;17.10;99.90;;;;;;4983515;28;20226;-68
2021/06/23 11:27:03;;;;;;;14.93;8.77;;;17.20;99.90;;;;;;4988855;28;20822;-68
2021/06/23 11:29:34;;;;;;;11.00;8.00;;;17.20;99.90;;;;;;4986836;28;20255;-67
2021/06/23 11:32:08;;;;;;;10.00;8.37;;;17.20;99.90;;;;;;4988328;28;20674;-67
2021/06/23 11:34:59;;;;;;;11.53;7.80;;;17.20;99.90;;;;;;4990167;28;20602;-67
2021/06/23 11:37:32;;;;;;;12.13;9.03;;;17.30;99.90;;;;;;4983697;28;20194;-68
2021/06/23 11:40:21;;;;;;;14.47;8.93;;;17.40;99.90;;;;;;4984376;28;20242;-67
2021/06/23 11:42:51;;;;;;;14.23;9.40;;;17.50;99.90;;;;;;4985015;28;20257;-68
2021/06/23 11:45:22;;;;;;;15.37;10.00;;;17.60;99.90;;;;;;4988644;28;20183;-68
2021/06/23 11:47:51;;;;;;;17.87;9.67;;;17.70;99.90;;;;;;4987541;28;20713;-68
2021/06/23 11:50:20;;;;;;;14.80;9.73;;;17.70;99.90;;;;;;4984301;28;20195;-68
2021/06/23 11:52:49;;;;;;;13.70;10.03;;;17.80;99.90;;;;;;4986564;28;20261;-67
2021/06/23 11:55:24;;;;;;;14.17;9.37;;;17.80;99.90;;;;;;4987898;28;20249;-68
2021/06/23 11:57:57;;;;;;;16.30;9.50;;;17.80;99.90;;;;;;4984224;28;20257;-67
2021/06/23 12:00:28;;;;;;;14.03;9.37;;;17.90;99.90;;;;;;4969188;28;20293;-68
2021/06/23 12:02:58;;;;;;;15.10;9.37;;;18.00;99.90;;;;;;4969640;28;20199;-67
2021/06/23 12:05:26;;;;;;;12.97;9.80;;;18.00;99.90;;;;;;4967574;28;20549;-68
2021/06/23 12:07:56;;;;;;;13.40;9.23;;;18.20;99.90;;;;;;4967588;28;20303;-68
2021/06/23 12:10:26;;;;;;;15.93;9.37;;;18.20;99.90;;;;;;4960134;28;20286;-68
2021/06/23 12:12:57;;;;;;;17.73;9.20;;;18.20;99.90;;;;;;4969616;28;20210;-68
2021/06/23 12:15:28;;;;;;;17.10;9.40;;;18.30;99.90;;;;;;4968361;28;20630;-68
2021/06/23 12:17:59;;;;;;;14.67;10.00;;;18.30;99.90;;;;;;4963869;28;20199;-68
2021/06/23 12:20:30;;;;;;;14.53;9.30;;;18.30;99.90;;;;;;4968800;28;20719;-68
2021/06/23 12:23:00;;;;;;;12.60;9.40;;;18.40;99.90;;;;;;4969213;28;20202;-68
2021/06/23 12:25:29;;;;;;;14.20;10.00;;;18.50;99.90;;;;;;4958607;28;20231;-67
2021/06/23 12:27:59;;;;;;;11.13;8.90;;;18.70;99.90;;;;;;4972441;28;20203;-67
2021/06/23 12:30:29;;;;;;;13.20;8.80;;;18.80;99.90;;;;;;4966444;28;20251;-67
2021/06/23 12:32:59;;;;;;;12.60;9.17;;;18.60;99.90;;;;;;4968566;28;20223;-67
2021/06/23 12:35:28;;;;;;;11.47;8.87;;;18.60;99.90;;;;;;4968674;28;20750;-68
2021/06/23 12:37:58;;;;;;;9.83;8.77;;;18.60;99.90;;;;;;4964373;28;20194;-67
2021/06/23 12:40:27;;;;;;;14.47;9.20;;;18.60;99.90;;;;;;4971298;28;20230;-67
2021/06/23 12:42:56;;;;;;;14.20;9.00;;;18.50;99.90;;;;;;4972239;28;20238;-67
2021/06/23 12:45:28;;;;;;;15.23;9.80;;;18.50;99.90;;;;;;4972470;28;20254;-68
2021/06/23 12:47:57;;;;;;;16.93;8.57;;;18.40;99.90;;;;;;4972470;28;20215;-68
2021/06/23 12:50:28;;;;;;;13.93;8.87;;;18.50;99.90;;;;;;4971341;28;20191;-67
2021/06/23 12:52:56;;;;;;;13.07;8.77;;;18.40;99.90;;;;;;4970205;28;20219;-67
2021/06/23 12:55:25;;;;;;;13.30;8.47;;;18.40;99.90;;;;;;4972643;28;20195;-68
2021/06/23 12:57:54;;;;;;;9.97;8.33;;;18.40;99.90;;;;;;4972497;28;20278;-67
2021/06/23 13:00:23;;;;;;;13.63;8.87;;;18.40;99.90;;;;;;4972783;28;20195;-67
2021/06/23 13:02:53;;;;;;;15.30;8.70;;;18.40;99.90;;;;;;4971736;28;20207;-67
2021/06/23 13:05:22;;;;;;;10.57;8.10;;;18.40;99.90;;;;;;4968090;28;20844;-67
2021/06/23 13:07:52;;;;;;;11.77;8.57;;;18.40;99.90;;;;;;4969138;28;20191;-68
2021/06/23 13:10:20;;;;;;;10.80;8.00;;;18.40;99.90;;;;;;4971985;28;20250;-67
2021/06/23 13:12:49;;;;;;;12.83;9.00;;;18.40;99.90;;;;;;4978720;28;20191;-68